sensor_id;sensor_type;location;lat;lon;timestamp;P1;durP1;ratioP1;P2;durP2;ratioP2
56045;SDS011;41913;51.030;3.706;2022-07-25T00:00:19;7.25;;;4.22;;
56045;SDS011;41913;51.030;3.706;2022-07-25T00:02:44;4.93;;;4.45;;
56045;SDS011;41913;51.030;3.706;2022-07-25T00:05:10;5.78;;;4.10;;
56045;SDS011;41913;51.030;3.706;2022-07-25T00:07:38;6.80;;;4.43;;
56045;SDS011;41913;51.030;3.706;2022-07-25T00:10:04;5.30;;;3.60;;
56045;SDS011;41913;51.030;3.706;2022-07-25T00:12:31;5.63;;;4.05;;
56045;SDS011;41913;51.030;3.706;2022-07-25T00:14:58;4.03;;;3.35;;
56045;SDS011;41913;51.030;3.706;2022-07-25T00:17:24;4.07;;;3.58;;
56045;SDS011;41913;51.030;3.706;2022-07-25T00:19:49;4.32;;;3.65;;
56045;SDS011;41913;51.030;3.706;2022-07-25T00:22:15;4.32;;;3.92;;
56045;SDS011;41913;51.030;3.706;2022-07-25T00:24:41;5.72;;;4.03;;
56045;SDS011;41913;51.030;3.706;2022-07-25T00:27:08;3.67;;;3.50;;
56045;SDS011;41913;51.030;3.706;2022-07-25T00:29:34;4.68;;;3.40;;
56045;SDS011;41913;51.030;3.706;2022-07-25T00:32:01;4.60;;;4.00;;
56045;SDS011;41913;51.030;3.706;2022-07-25T00:34:27;3.92;;;3.55;;
56045;SDS011;41913;51.030;3.706;2022-07-25T00:36:58;7.57;;;3.50;;
56045;SDS011;41913;51.030;3.706;2022-07-25T00:39:24;7.75;;;4.20;;
56045;SDS011;41913;51.030;3.706;2022-07-25T00:41:49;5.47;;;3.63;;
56045;SDS011;41913;51.030;3.706;2022-07-25T00:44:29;7.25;;;3.85;;
56045;SDS011;41913;51.030;3.706;2022-07-25T00:46:57;4.80;;;4.25;;
56045;SDS011;41913;51.030;3.706;2022-07-25T00:49:25;8.82;;;4.15;;
56045;SDS011;41913;51.030;3.706;2022-07-25T00:51:57;6.10;;;3.65;;
56045;SDS011;41913;51.030;3.706;2022-07-25T00:54:26;6.65;;;4.20;;
56045;SDS011;41913;51.030;3.706;2022-07-25T00:56:52;5.32;;;4.22;;
56045;SDS011;41913;51.030;3.706;2022-07-25T00:59:19;5.20;;;4.70;;
56045;SDS011;41913;51.030;3.706;2022-07-25T01:01:45;7.35;;;4.00;;
56045;SDS011;41913;51.030;3.706;2022-07-25T01:04:14;4.95;;;4.53;;
56045;SDS011;41913;51.030;3.706;2022-07-25T01:06:42;4.88;;;3.80;;
56045;SDS011;41913;51.030;3.706;2022-07-25T01:09:08;6.63;;;5.00;;
56045;SDS011;41913;51.030;3.706;2022-07-25T01:11:34;4.90;;;4.60;;
56045;SDS011;41913;51.030;3.706;2022-07-25T01:14:01;5.35;;;4.85;;
56045;SDS011;41913;51.030;3.706;2022-07-25T01:16:29;8.35;;;5.07;;
56045;SDS011;41913;51.030;3.706;2022-07-25T01:18:56;7.22;;;6.03;;
56045;SDS011;41913;51.030;3.706;2022-07-25T01:21:22;6.00;;;5.40;;
56045;SDS011;41913;51.030;3.706;2022-07-25T01:23:49;5.35;;;4.88;;
56045;SDS011;41913;51.030;3.706;2022-07-25T01:26:15;4.53;;;4.10;;
56045;SDS011;41913;51.030;3.706;2022-07-25T01:28:41;6.70;;;5.03;;
56045;SDS011;41913;51.030;3.706;2022-07-25T01:31:07;7.53;;;5.53;;
56045;SDS011;41913;51.030;3.706;2022-07-25T01:33:33;11.20;;;6.10;;
56045;SDS011;41913;51.030;3.706;2022-07-25T01:35:59;7.75;;;5.20;;
56045;SDS011;41913;51.030;3.706;2022-07-25T01:38:25;9.98;;;4.85;;
56045;SDS011;41913;51.030;3.706;2022-07-25T01:40:52;8.35;;;5.78;;
56045;SDS011;41913;51.030;3.706;2022-07-25T01:43:18;9.75;;;4.70;;
56045;SDS011;41913;51.030;3.706;2022-07-25T01:45:45;5.85;;;5.10;;
56045;SDS011;41913;51.030;3.706;2022-07-25T01:48:12;6.60;;;4.25;;
56045;SDS011;41913;51.030;3.706;2022-07-25T01:50:39;8.45;;;5.78;;
56045;SDS011;41913;51.030;3.706;2022-07-25T01:53:05;6.88;;;6.18;;
56045;SDS011;41913;51.030;3.706;2022-07-25T01:57:59;6.75;;;5.45;;
56045;SDS011;41913;51.030;3.706;2022-07-25T02:00:25;10.00;;;5.95;;
56045;SDS011;41913;51.030;3.706;2022-07-25T02:02:51;5.75;;;5.28;;
56045;SDS011;41913;51.030;3.706;2022-07-25T02:05:36;6.40;;;5.28;;
56045;SDS011;41913;51.030;3.706;2022-07-25T02:08:08;6.47;;;4.90;;
56045;SDS011;41913;51.030;3.706;2022-07-25T02:13:02;9.02;;;6.30;;
56045;SDS011;41913;51.030;3.706;2022-07-25T02:15:29;9.52;;;6.15;;
56045;SDS011;41913;51.030;3.706;2022-07-25T02:18:05;7.93;;;5.88;;
56045;SDS011;41913;51.030;3.706;2022-07-25T02:20:31;6.30;;;5.80;;
56045;SDS011;41913;51.030;3.706;2022-07-25T02:22:57;7.80;;;5.07;;
56045;SDS011;41913;51.030;3.706;2022-07-25T02:25:24;6.15;;;5.22;;
56045;SDS011;41913;51.030;3.706;2022-07-25T02:27:51;8.77;;;5.90;;
56045;SDS011;41913;51.030;3.706;2022-07-25T02:30:16;7.60;;;6.43;;
56045;SDS011;41913;51.030;3.706;2022-07-25T02:35:11;8.38;;;6.13;;
56045;SDS011;41913;51.030;3.706;2022-07-25T02:37:36;7.90;;;6.43;;
56045;SDS011;41913;51.030;3.706;2022-07-25T02:40:02;9.20;;;5.70;;
56045;SDS011;41913;51.030;3.706;2022-07-25T02:42:30;11.65;;;5.55;;
56045;SDS011;41913;51.030;3.706;2022-07-25T02:44:57;6.63;;;5.18;;
56045;SDS011;41913;51.030;3.706;2022-07-25T02:47:23;7.80;;;5.80;;
56045;SDS011;41913;51.030;3.706;2022-07-25T02:49:49;7.45;;;4.90;;
56045;SDS011;41913;51.030;3.706;2022-07-25T02:52:16;4.88;;;4.50;;
56045;SDS011;41913;51.030;3.706;2022-07-25T02:54:44;6.57;;;4.97;;
56045;SDS011;41913;51.030;3.706;2022-07-25T02:57:11;8.40;;;5.32;;
56045;SDS011;41913;51.030;3.706;2022-07-25T02:59:40;6.70;;;5.20;;
56045;SDS011;41913;51.030;3.706;2022-07-25T03:02:07;5.32;;;4.93;;
56045;SDS011;41913;51.030;3.706;2022-07-25T03:04:35;6.47;;;5.28;;
56045;SDS011;41913;51.030;3.706;2022-07-25T03:07:01;5.07;;;4.60;;
56045;SDS011;41913;51.030;3.706;2022-07-25T03:11:55;5.57;;;4.45;;
56045;SDS011;41913;51.030;3.706;2022-07-25T03:14:21;5.75;;;5.25;;
56045;SDS011;41913;51.030;3.706;2022-07-25T03:16:46;6.72;;;5.13;;
56045;SDS011;41913;51.030;3.706;2022-07-25T03:19:12;5.63;;;5.13;;
56045;SDS011;41913;51.030;3.706;2022-07-25T03:21:40;4.90;;;4.50;;
56045;SDS011;41913;51.030;3.706;2022-07-25T03:24:06;6.47;;;4.22;;
56045;SDS011;41913;51.030;3.706;2022-07-25T03:26:35;6.13;;;4.65;;
56045;SDS011;41913;51.030;3.706;2022-07-25T03:29:00;6.05;;;3.92;;
56045;SDS011;41913;51.030;3.706;2022-07-25T03:31:28;6.10;;;3.90;;
56045;SDS011;41913;51.030;3.706;2022-07-25T03:36:23;4.03;;;3.72;;
56045;SDS011;41913;51.030;3.706;2022-07-25T03:38:51;4.78;;;4.03;;
56045;SDS011;41913;51.030;3.706;2022-07-25T03:41:19;4.68;;;3.88;;
56045;SDS011;41913;51.030;3.706;2022-07-25T03:43:46;6.43;;;4.00;;
56045;SDS011;41913;51.030;3.706;2022-07-25T03:46:11;4.53;;;3.45;;
56045;SDS011;41913;51.030;3.706;2022-07-25T03:48:40;5.53;;;3.72;;
56045;SDS011;41913;51.030;3.706;2022-07-25T03:53:34;7.15;;;3.13;;
56045;SDS011;41913;51.030;3.706;2022-07-25T03:56:20;3.88;;;3.47;;
56045;SDS011;41913;51.030;3.706;2022-07-25T03:58:46;4.75;;;2.92;;
56045;SDS011;41913;51.030;3.706;2022-07-25T04:01:12;3.97;;;1.95;;
56045;SDS011;41913;51.030;3.706;2022-07-25T04:03:40;5.32;;;2.30;;
56045;SDS011;41913;51.030;3.706;2022-07-25T04:06:06;6.75;;;3.10;;
56045;SDS011;41913;51.030;3.706;2022-07-25T04:08:32;2.85;;;2.38;;
56045;SDS011;41913;51.030;3.706;2022-07-25T04:10:58;4.82;;;2.90;;
56045;SDS011;41913;51.030;3.706;2022-07-25T04:13:25;5.05;;;2.10;;
56045;SDS011;41913;51.030;3.706;2022-07-25T04:15:50;4.90;;;2.22;;
56045;SDS011;41913;51.030;3.706;2022-07-25T04:18:17;8.32;;;3.03;;
56045;SDS011;41913;51.030;3.706;2022-07-25T04:20:43;5.25;;;2.92;;
56045;SDS011;41913;51.030;3.706;2022-07-25T04:23:09;4.95;;;1.90;;
56045;SDS011;41913;51.030;3.706;2022-07-25T04:25:35;4.80;;;1.95;;
56045;SDS011;41913;51.030;3.706;2022-07-25T04:28:02;5.05;;;2.60;;
56045;SDS011;41913;51.030;3.706;2022-07-25T04:30:28;5.20;;;1.83;;
56045;SDS011;41913;51.030;3.706;2022-07-25T04:32:54;10.20;;;2.97;;
56045;SDS011;41913;51.030;3.706;2022-07-25T04:35:20;6.72;;;2.65;;
56045;SDS011;41913;51.030;3.706;2022-07-25T04:37:47;5.43;;;2.03;;
56045;SDS011;41913;51.030;3.706;2022-07-25T04:40:13;6.80;;;2.20;;
56045;SDS011;41913;51.030;3.706;2022-07-25T04:42:40;2.88;;;2.53;;
56045;SDS011;41913;51.030;3.706;2022-07-25T04:45:06;4.78;;;2.03;;
56045;SDS011;41913;51.030;3.706;2022-07-25T04:47:34;3.20;;;2.35;;
56045;SDS011;41913;51.030;3.706;2022-07-25T04:50:01;8.43;;;2.72;;
56045;SDS011;41913;51.030;3.706;2022-07-25T04:52:27;3.70;;;3.40;;
56045;SDS011;41913;51.030;3.706;2022-07-25T04:57:21;3.85;;;2.47;;
56045;SDS011;41913;51.030;3.706;2022-07-25T04:59:47;3.33;;;2.25;;
56045;SDS011;41913;51.030;3.706;2022-07-25T05:02:12;5.32;;;2.30;;
56045;SDS011;41913;51.030;3.706;2022-07-25T05:04:38;6.20;;;2.42;;
56045;SDS011;41913;51.030;3.706;2022-07-25T05:07:06;4.50;;;2.90;;
56045;SDS011;41913;51.030;3.706;2022-07-25T05:09:32;3.10;;;2.72;;
56045;SDS011;41913;51.030;3.706;2022-07-25T05:11:57;6.75;;;2.08;;
56045;SDS011;41913;51.030;3.706;2022-07-25T05:14:25;5.53;;;2.78;;
56045;SDS011;41913;51.030;3.706;2022-07-25T05:16:51;9.20;;;2.10;;
56045;SDS011;41913;51.030;3.706;2022-07-25T05:19:16;2.63;;;2.40;;
56045;SDS011;41913;51.030;3.706;2022-07-25T05:21:42;7.35;;;2.60;;
56045;SDS011;41913;51.030;3.706;2022-07-25T05:24:08;8.57;;;3.00;;
56045;SDS011;41913;51.030;3.706;2022-07-25T05:26:33;9.32;;;2.83;;
56045;SDS011;41913;51.030;3.706;2022-07-25T05:28:59;5.05;;;2.33;;
56045;SDS011;41913;51.030;3.706;2022-07-25T05:31:26;8.15;;;3.60;;
56045;SDS011;41913;51.030;3.706;2022-07-25T05:33:52;6.70;;;2.40;;
56045;SDS011;41913;51.030;3.706;2022-07-25T05:36:18;8.15;;;2.08;;
56045;SDS011;41913;51.030;3.706;2022-07-25T05:38:45;4.05;;;2.30;;
56045;SDS011;41913;51.030;3.706;2022-07-25T05:41:17;12.55;;;2.70;;
56045;SDS011;41913;51.030;3.706;2022-07-25T05:43:43;5.00;;;2.50;;
56045;SDS011;41913;51.030;3.706;2022-07-25T05:46:11;5.40;;;2.33;;
56045;SDS011;41913;51.030;3.706;2022-07-25T05:48:38;5.47;;;3.10;;
56045;SDS011;41913;51.030;3.706;2022-07-25T05:54:10;9.18;;;2.72;;
56045;SDS011;41913;51.030;3.706;2022-07-25T05:56:36;13.02;;;2.88;;
56045;SDS011;41913;51.030;3.706;2022-07-25T05:59:14;6.18;;;3.50;;
56045;SDS011;41913;51.030;3.706;2022-07-25T06:01:41;5.80;;;3.05;;
56045;SDS011;41913;51.030;3.706;2022-07-25T06:04:07;8.02;;;3.65;;
56045;SDS011;41913;51.030;3.706;2022-07-25T06:06:32;8.65;;;2.33;;
56045;SDS011;41913;51.030;3.706;2022-07-25T06:08:58;9.40;;;2.33;;
56045;SDS011;41913;51.030;3.706;2022-07-25T06:11:24;4.65;;;2.67;;
56045;SDS011;41913;51.030;3.706;2022-07-25T06:13:53;4.13;;;3.30;;
56045;SDS011;41913;51.030;3.706;2022-07-25T06:16:18;9.82;;;3.55;;
56045;SDS011;41913;51.030;3.706;2022-07-25T06:18:44;12.40;;;4.65;;
56045;SDS011;41913;51.030;3.706;2022-07-25T06:21:10;10.50;;;3.38;;
56045;SDS011;41913;51.030;3.706;2022-07-25T06:23:39;5.63;;;3.33;;
56045;SDS011;41913;51.030;3.706;2022-07-25T06:26:08;10.10;;;3.42;;
56045;SDS011;41913;51.030;3.706;2022-07-25T06:28:35;7.50;;;3.00;;
56045;SDS011;41913;51.030;3.706;2022-07-25T06:31:01;8.98;;;3.30;;
56045;SDS011;41913;51.030;3.706;2022-07-25T06:33:27;10.52;;;3.83;;
56045;SDS011;41913;51.030;3.706;2022-07-25T06:35:52;8.40;;;3.30;;
56045;SDS011;41913;51.030;3.706;2022-07-25T06:38:18;4.72;;;3.15;;
56045;SDS011;41913;51.030;3.706;2022-07-25T06:40:46;9.32;;;4.13;;
56045;SDS011;41913;51.030;3.706;2022-07-25T06:43:12;6.45;;;2.97;;
56045;SDS011;41913;51.030;3.706;2022-07-25T06:45:38;8.38;;;3.70;;
56045;SDS011;41913;51.030;3.706;2022-07-25T06:48:05;7.35;;;3.40;;
56045;SDS011;41913;51.030;3.706;2022-07-25T06:50:31;6.35;;;2.60;;
56045;SDS011;41913;51.030;3.706;2022-07-25T06:52:58;11.25;;;3.60;;
56045;SDS011;41913;51.030;3.706;2022-07-25T06:55:26;3.65;;;2.40;;
56045;SDS011;41913;51.030;3.706;2022-07-25T06:57:51;7.28;;;2.90;;
56045;SDS011;41913;51.030;3.706;2022-07-25T07:00:17;13.65;;;2.97;;
56045;SDS011;41913;51.030;3.706;2022-07-25T07:02:46;5.15;;;2.70;;
56045;SDS011;41913;51.030;3.706;2022-07-25T07:05:24;7.03;;;2.60;;
56045;SDS011;41913;51.030;3.706;2022-07-25T07:07:51;7.45;;;2.47;;
56045;SDS011;41913;51.030;3.706;2022-07-25T07:10:18;2.83;;;2.20;;
56045;SDS011;41913;51.030;3.706;2022-07-25T07:12:44;2.95;;;2.58;;
56045;SDS011;41913;51.030;3.706;2022-07-25T07:15:13;4.25;;;3.25;;
56045;SDS011;41913;51.030;3.706;2022-07-25T07:17:39;5.22;;;1.88;;
56045;SDS011;41913;51.030;3.706;2022-07-25T07:20:11;6.22;;;2.53;;
56045;SDS011;41913;51.030;3.706;2022-07-25T07:22:44;5.53;;;2.40;;
56045;SDS011;41913;51.030;3.706;2022-07-25T07:25:14;5.00;;;2.33;;
56045;SDS011;41913;51.030;3.706;2022-07-25T07:27:42;8.63;;;2.10;;
56045;SDS011;41913;51.030;3.706;2022-07-25T07:30:08;6.55;;;2.50;;
56045;SDS011;41913;51.030;3.706;2022-07-25T07:32:35;6.10;;;1.73;;
56045;SDS011;41913;51.030;3.706;2022-07-25T07:35:02;16.05;;;2.90;;
56045;SDS011;41913;51.030;3.706;2022-07-25T07:37:28;18.20;;;2.63;;
56045;SDS011;41913;51.030;3.706;2022-07-25T07:39:55;6.40;;;2.40;;
56045;SDS011;41913;51.030;3.706;2022-07-25T07:42:21;6.85;;;2.05;;
56045;SDS011;41913;51.030;3.706;2022-07-25T07:44:47;3.50;;;1.52;;
56045;SDS011;41913;51.030;3.706;2022-07-25T07:47:20;4.55;;;1.70;;
56045;SDS011;41913;51.030;3.706;2022-07-25T07:49:47;7.95;;;1.80;;
56045;SDS011;41913;51.030;3.706;2022-07-25T07:52:12;5.13;;;1.30;;
56045;SDS011;41913;51.030;3.706;2022-07-25T07:54:39;3.47;;;1.58;;
56045;SDS011;41913;51.030;3.706;2022-07-25T07:57:24;7.25;;;1.98;;
56045;SDS011;41913;51.030;3.706;2022-07-25T07:59:50;6.90;;;1.63;;
56045;SDS011;41913;51.030;3.706;2022-07-25T08:02:17;4.05;;;1.40;;
56045;SDS011;41913;51.030;3.706;2022-07-25T08:04:43;2.67;;;1.98;;
56045;SDS011;41913;51.030;3.706;2022-07-25T08:07:12;12.30;;;1.88;;
56045;SDS011;41913;51.030;3.706;2022-07-25T08:09:39;2.97;;;1.45;;
56045;SDS011;41913;51.030;3.706;2022-07-25T08:12:05;5.72;;;1.67;;
56045;SDS011;41913;51.030;3.706;2022-07-25T08:14:34;3.28;;;1.45;;
56045;SDS011;41913;51.030;3.706;2022-07-25T08:19:28;8.43;;;1.83;;
56045;SDS011;41913;51.030;3.706;2022-07-25T08:21:54;7.07;;;1.80;;
56045;SDS011;41913;51.030;3.706;2022-07-25T08:24:19;7.32;;;1.92;;
56045;SDS011;41913;51.030;3.706;2022-07-25T08:31:46;3.53;;;1.90;;
56045;SDS011;41913;51.030;3.706;2022-07-25T08:34:13;6.05;;;2.10;;
56045;SDS011;41913;51.030;3.706;2022-07-25T08:36:40;5.40;;;2.10;;
56045;SDS011;41913;51.030;3.706;2022-07-25T08:39:06;12.48;;;1.88;;
56045;SDS011;41913;51.030;3.706;2022-07-25T08:41:33;6.53;;;1.85;;
56045;SDS011;41913;51.030;3.706;2022-07-25T08:43:59;5.20;;;2.00;;
56045;SDS011;41913;51.030;3.706;2022-07-25T08:46:26;3.42;;;2.50;;
56045;SDS011;41913;51.030;3.706;2022-07-25T08:48:54;7.20;;;2.92;;
56045;SDS011;41913;51.030;3.706;2022-07-25T08:51:20;4.65;;;2.42;;
56045;SDS011;41913;51.030;3.706;2022-07-25T08:53:47;7.80;;;3.03;;
56045;SDS011;41913;51.030;3.706;2022-07-25T08:56:14;11.30;;;2.03;;
56045;SDS011;41913;51.030;3.706;2022-07-25T08:58:40;5.25;;;2.13;;
56045;SDS011;41913;51.030;3.706;2022-07-25T09:01:06;6.20;;;2.22;;
56045;SDS011;41913;51.030;3.706;2022-07-25T09:03:32;11.80;;;2.47;;
56045;SDS011;41913;51.030;3.706;2022-07-25T09:05:57;5.38;;;2.67;;
56045;SDS011;41913;51.030;3.706;2022-07-25T09:08:24;7.28;;;2.58;;
56045;SDS011;41913;51.030;3.706;2022-07-25T09:10:50;6.25;;;2.33;;
56045;SDS011;41913;51.030;3.706;2022-07-25T09:13:19;8.27;;;2.88;;
56045;SDS011;41913;51.030;3.706;2022-07-25T09:15:48;18.20;;;3.30;;
56045;SDS011;41913;51.030;3.706;2022-07-25T09:18:22;11.10;;;2.83;;
56045;SDS011;41913;51.030;3.706;2022-07-25T09:20:53;9.30;;;3.20;;
56045;SDS011;41913;51.030;3.706;2022-07-25T09:26:01;10.70;;;2.72;;
56045;SDS011;41913;51.030;3.706;2022-07-25T09:28:29;8.27;;;2.50;;
56045;SDS011;41913;51.030;3.706;2022-07-25T09:30:56;10.98;;;2.83;;
56045;SDS011;41913;51.030;3.706;2022-07-25T09:33:23;8.43;;;2.33;;
56045;SDS011;41913;51.030;3.706;2022-07-25T09:35:50;13.02;;;2.67;;
56045;SDS011;41913;51.030;3.706;2022-07-25T09:38:17;5.57;;;2.67;;
56045;SDS011;41913;51.030;3.706;2022-07-25T09:40:54;5.30;;;2.33;;
56045;SDS011;41913;51.030;3.706;2022-07-25T09:43:22;2.67;;;2.03;;
56045;SDS011;41913;51.030;3.706;2022-07-25T09:46:00;5.22;;;2.08;;
56045;SDS011;41913;51.030;3.706;2022-07-25T09:48:26;8.43;;;2.30;;
56045;SDS011;41913;51.030;3.706;2022-07-25T09:50:52;5.07;;;2.35;;
56045;SDS011;41913;51.030;3.706;2022-07-25T09:53:19;8.40;;;2.03;;
56045;SDS011;41913;51.030;3.706;2022-07-25T09:55:47;7.63;;;2.30;;
56045;SDS011;41913;51.030;3.706;2022-07-25T09:58:15;3.80;;;1.77;;
56045;SDS011;41913;51.030;3.706;2022-07-25T10:00:42;10.23;;;2.55;;
56045;SDS011;41913;51.030;3.706;2022-07-25T10:08:35;6.47;;;2.67;;
56045;SDS011;41913;51.030;3.706;2022-07-25T10:11:04;4.00;;;2.45;;
56045;SDS011;41913;51.030;3.706;2022-07-25T10:13:41;6.43;;;2.20;;
56045;SDS011;41913;51.030;3.706;2022-07-25T10:16:15;9.73;;;2.85;;
56045;SDS011;41913;51.030;3.706;2022-07-25T10:18:49;5.22;;;2.33;;
56045;SDS011;41913;51.030;3.706;2022-07-25T10:21:17;16.17;;;2.72;;
56045;SDS011;41913;51.030;3.706;2022-07-25T10:23:43;9.40;;;1.80;;
56045;SDS011;41913;51.030;3.706;2022-07-25T10:26:14;19.98;;;3.60;;
56045;SDS011;41913;51.030;3.706;2022-07-25T10:31:19;5.75;;;2.05;;
56045;SDS011;41913;51.030;3.706;2022-07-25T10:33:50;4.15;;;1.77;;
56045;SDS011;41913;51.030;3.706;2022-07-25T10:36:21;17.17;;;2.88;;
56045;SDS011;41913;51.030;3.706;2022-07-25T10:38:51;10.30;;;2.42;;
56045;SDS011;41913;51.030;3.706;2022-07-25T10:41:22;23.33;;;4.05;;
56045;SDS011;41913;51.030;3.706;2022-07-25T10:43:50;5.15;;;2.08;;
56045;SDS011;41913;51.030;3.706;2022-07-25T10:46:19;8.02;;;2.67;;
56045;SDS011;41913;51.030;3.706;2022-07-25T10:48:57;7.53;;;2.08;;
56045;SDS011;41913;51.030;3.706;2022-07-25T10:51:27;11.23;;;2.20;;
56045;SDS011;41913;51.030;3.706;2022-07-25T10:53:56;6.38;;;2.10;;
56045;SDS011;41913;51.030;3.706;2022-07-25T10:56:25;10.50;;;2.67;;
56045;SDS011;41913;51.030;3.706;2022-07-25T10:58:59;9.27;;;2.63;;
56045;SDS011;41913;51.030;3.706;2022-07-25T11:01:28;8.32;;;2.60;;
56045;SDS011;41913;51.030;3.706;2022-07-25T11:03:56;7.00;;;2.47;;
56045;SDS011;41913;51.030;3.706;2022-07-25T11:06:32;14.82;;;3.83;;
56045;SDS011;41913;51.030;3.706;2022-07-25T11:09:03;4.88;;;2.00;;
56045;SDS011;41913;51.030;3.706;2022-07-25T11:11:40;10.43;;;2.80;;
56045;SDS011;41913;51.030;3.706;2022-07-25T11:16:55;7.95;;;1.83;;
56045;SDS011;41913;51.030;3.706;2022-07-25T11:19:22;3.05;;;1.60;;
56045;SDS011;41913;51.030;3.706;2022-07-25T11:21:53;8.40;;;2.60;;
56045;SDS011;41913;51.030;3.706;2022-07-25T11:24:40;9.52;;;2.72;;
56045;SDS011;41913;51.030;3.706;2022-07-25T11:27:20;3.65;;;1.80;;
56045;SDS011;41913;51.030;3.706;2022-07-25T11:30:11;38.03;;;4.03;;
56045;SDS011;41913;51.030;3.706;2022-07-25T11:32:45;6.57;;;2.22;;
56045;SDS011;41913;51.030;3.706;2022-07-25T11:35:15;9.55;;;1.92;;
56045;SDS011;41913;51.030;3.706;2022-07-25T11:37:44;5.55;;;1.55;;
56045;SDS011;41913;51.030;3.706;2022-07-25T11:40:13;7.53;;;1.63;;
56045;SDS011;41913;51.030;3.706;2022-07-25T11:42:46;7.07;;;1.75;;
56045;SDS011;41913;51.030;3.706;2022-07-25T11:47:47;20.85;;;2.30;;
56045;SDS011;41913;51.030;3.706;2022-07-25T11:50:14;13.48;;;2.25;;
56045;SDS011;41913;51.030;3.706;2022-07-25T11:52:42;8.15;;;2.30;;
56045;SDS011;41913;51.030;3.706;2022-07-25T11:55:11;23.25;;;3.25;;
56045;SDS011;41913;51.030;3.706;2022-07-25T11:57:41;5.85;;;1.85;;
56045;SDS011;41913;51.030;3.706;2022-07-25T12:02:44;3.92;;;2.10;;
56045;SDS011;41913;51.030;3.706;2022-07-25T12:05:12;11.77;;;1.80;;
56045;SDS011;41913;51.030;3.706;2022-07-25T12:07:43;5.95;;;1.83;;
56045;SDS011;41913;51.030;3.706;2022-07-25T12:13:02;8.20;;;1.50;;
56045;SDS011;41913;51.030;3.706;2022-07-25T12:15:32;10.75;;;2.25;;
56045;SDS011;41913;51.030;3.706;2022-07-25T12:18:02;17.65;;;3.20;;
56045;SDS011;41913;51.030;3.706;2022-07-25T12:20:29;5.30;;;1.85;;
56045;SDS011;41913;51.030;3.706;2022-07-25T12:23:04;5.90;;;1.45;;
56045;SDS011;41913;51.030;3.706;2022-07-25T12:25:34;6.47;;;1.90;;
56045;SDS011;41913;51.030;3.706;2022-07-25T12:28:04;10.35;;;2.00;;
56045;SDS011;41913;51.030;3.706;2022-07-25T12:30:32;12.75;;;1.55;;
56045;SDS011;41913;51.030;3.706;2022-07-25T12:32:59;5.43;;;1.90;;
56045;SDS011;41913;51.030;3.706;2022-07-25T12:35:26;3.90;;;1.45;;
56045;SDS011;41913;51.030;3.706;2022-07-25T12:37:51;6.88;;;1.67;;
56045;SDS011;41913;51.030;3.706;2022-07-25T12:40:18;3.42;;;1.40;;
56045;SDS011;41913;51.030;3.706;2022-07-25T12:42:46;24.08;;;2.33;;
56045;SDS011;41913;51.030;3.706;2022-07-25T12:45:13;5.22;;;1.80;;
56045;SDS011;41913;51.030;3.706;2022-07-25T12:47:41;42.67;;;4.13;;
56045;SDS011;41913;51.030;3.706;2022-07-25T12:50:11;9.95;;;1.83;;
56045;SDS011;41913;51.030;3.706;2022-07-25T12:52:38;9.48;;;1.90;;
56045;SDS011;41913;51.030;3.706;2022-07-25T12:55:07;19.80;;;1.73;;
56045;SDS011;41913;51.030;3.706;2022-07-25T12:57:35;19.23;;;2.25;;
56045;SDS011;41913;51.030;3.706;2022-07-25T13:00:04;4.13;;;1.67;;
56045;SDS011;41913;51.030;3.706;2022-07-25T13:02:34;7.10;;;1.27;;
56045;SDS011;41913;51.030;3.706;2022-07-25T13:05:00;4.78;;;1.05;;
56045;SDS011;41913;51.030;3.706;2022-07-25T13:07:28;6.93;;;0.90;;
56045;SDS011;41913;51.030;3.706;2022-07-25T13:09:57;3.70;;;0.77;;
56045;SDS011;41913;51.030;3.706;2022-07-25T13:12:25;6.20;;;1.10;;
56045;SDS011;41913;51.030;3.706;2022-07-25T13:14:51;5.97;;;1.42;;
56045;SDS011;41913;51.030;3.706;2022-07-25T13:17:18;5.38;;;1.17;;
56045;SDS011;41913;51.030;3.706;2022-07-25T13:19:45;5.13;;;1.52;;
56045;SDS011;41913;51.030;3.706;2022-07-25T13:22:10;7.60;;;2.00;;
56045;SDS011;41913;51.030;3.706;2022-07-25T13:24:37;6.68;;;1.23;;
56045;SDS011;41913;51.030;3.706;2022-07-25T13:27:04;1.83;;;0.80;;
56045;SDS011;41913;51.030;3.706;2022-07-25T13:29:31;2.60;;;1.48;;
56045;SDS011;41913;51.030;3.706;2022-07-25T13:31:57;4.68;;;1.27;;
56045;SDS011;41913;51.030;3.706;2022-07-25T13:34:23;5.55;;;0.93;;
56045;SDS011;41913;51.030;3.706;2022-07-25T13:36:49;3.55;;;0.90;;
56045;SDS011;41913;51.030;3.706;2022-07-25T13:39:15;25.38;;;2.80;;
56045;SDS011;41913;51.030;3.706;2022-07-25T13:41:41;3.75;;;0.93;;
56045;SDS011;41913;51.030;3.706;2022-07-25T13:44:06;3.05;;;0.90;;
56045;SDS011;41913;51.030;3.706;2022-07-25T13:46:34;3.42;;;1.23;;
56045;SDS011;41913;51.030;3.706;2022-07-25T13:49:00;4.32;;;0.90;;
56045;SDS011;41913;51.030;3.706;2022-07-25T13:51:25;4.70;;;0.85;;
56045;SDS011;41913;51.030;3.706;2022-07-25T13:53:51;2.25;;;0.65;;
56045;SDS011;41913;51.030;3.706;2022-07-25T13:56:18;1.35;;;0.63;;
56045;SDS011;41913;51.030;3.706;2022-07-25T13:58:44;4.25;;;0.98;;
56045;SDS011;41913;51.030;3.706;2022-07-25T14:01:11;2.50;;;1.00;;
56045;SDS011;41913;51.030;3.706;2022-07-25T14:03:37;4.43;;;0.68;;
56045;SDS011;41913;51.030;3.706;2022-07-25T14:06:03;2.55;;;1.25;;
56045;SDS011;41913;51.030;3.706;2022-07-25T14:08:29;1.60;;;1.05;;
56045;SDS011;41913;51.030;3.706;2022-07-25T14:13:26;4.30;;;1.15;;
56045;SDS011;41913;51.030;3.706;2022-07-25T14:15:53;3.03;;;1.00;;
56045;SDS011;41913;51.030;3.706;2022-07-25T14:18:20;2.40;;;0.80;;
56045;SDS011;41913;51.030;3.706;2022-07-25T14:20:47;2.63;;;0.90;;
56045;SDS011;41913;51.030;3.706;2022-07-25T14:23:14;1.27;;;0.50;;
56045;SDS011;41913;51.030;3.706;2022-07-25T14:25:39;2.75;;;1.10;;
56045;SDS011;41913;51.030;3.706;2022-07-25T14:28:05;4.13;;;0.88;;
56045;SDS011;41913;51.030;3.706;2022-07-25T14:30:31;8.45;;;1.50;;
56045;SDS011;41913;51.030;3.706;2022-07-25T14:32:56;4.55;;;0.98;;
56045;SDS011;41913;51.030;3.706;2022-07-25T14:35:22;2.47;;;0.85;;
56045;SDS011;41913;51.030;3.706;2022-07-25T14:37:48;8.75;;;0.95;;
56045;SDS011;41913;51.030;3.706;2022-07-25T14:40:13;4.15;;;0.60;;
56045;SDS011;41913;51.030;3.706;2022-07-25T14:42:40;2.78;;;0.80;;
56045;SDS011;41913;51.030;3.706;2022-07-25T14:45:06;5.68;;;0.98;;
56045;SDS011;41913;51.030;3.706;2022-07-25T14:47:33;8.80;;;0.98;;
56045;SDS011;41913;51.030;3.706;2022-07-25T14:49:59;10.75;;;1.25;;
56045;SDS011;41913;51.030;3.706;2022-07-25T14:52:25;3.03;;;0.70;;
56045;SDS011;41913;51.030;3.706;2022-07-25T14:54:51;7.78;;;1.02;;
56045;SDS011;41913;51.030;3.706;2022-07-25T14:57:16;1.70;;;0.80;;
56045;SDS011;41913;51.030;3.706;2022-07-25T14:59:43;7.03;;;0.95;;
56045;SDS011;41913;51.030;3.706;2022-07-25T15:02:08;8.02;;;1.02;;
56045;SDS011;41913;51.030;3.706;2022-07-25T15:04:35;26.65;;;1.95;;
56045;SDS011;41913;51.030;3.706;2022-07-25T15:07:01;3.17;;;0.57;;
56045;SDS011;41913;51.030;3.706;2022-07-25T15:09:28;5.30;;;0.80;;
56045;SDS011;41913;51.030;3.706;2022-07-25T15:11:55;6.65;;;0.95;;
56045;SDS011;41913;51.030;3.706;2022-07-25T15:14:22;0.98;;;0.77;;
56045;SDS011;41913;51.030;3.706;2022-07-25T15:16:50;4.28;;;1.30;;
56045;SDS011;41913;51.030;3.706;2022-07-25T15:19:17;2.92;;;0.88;;
56045;SDS011;41913;51.030;3.706;2022-07-25T15:21:43;2.95;;;0.75;;
56045;SDS011;41913;51.030;3.706;2022-07-25T15:24:09;8.13;;;0.75;;
56045;SDS011;41913;51.030;3.706;2022-07-25T15:26:35;2.50;;;0.85;;
56045;SDS011;41913;51.030;3.706;2022-07-25T15:29:00;7.38;;;1.35;;
56045;SDS011;41913;51.030;3.706;2022-07-25T15:31:26;3.80;;;0.93;;
56045;SDS011;41913;51.030;3.706;2022-07-25T15:33:52;1.02;;;0.70;;
56045;SDS011;41913;51.030;3.706;2022-07-25T15:36:18;8.15;;;0.80;;
56045;SDS011;41913;51.030;3.706;2022-07-25T15:38:44;4.25;;;0.80;;